sensor_id;sensor_type;location;lat;lon;timestamp;temperature;humidity
26909;DHT22;14477;51.038;4.588;2024-03-08T00:00:00;7.80;99.90
26909;DHT22;14477;51.038;4.588;2024-03-08T00:02:36;7.80;99.90
26909;DHT22;14477;51.038;4.588;2024-03-08T00:05:05;7.70;99.90
26909;DHT22;14477;51.038;4.588;2024-03-08T00:07:31;8.30;99.90
26909;DHT22;14477;51.038;4.588;2024-03-08T00:09:58;7.70;99.90
26909;DHT22;14477;51.038;4.588;2024-03-08T00:12:24;7.70;99.90
26909;DHT22;14477;51.038;4.588;2024-03-08T00:14:53;7.60;99.90
26909;DHT22;14477;51.038;4.588;2024-03-08T00:17:20;7.60;99.90
26909;DHT22;14477;51.038;4.588;2024-03-08T00:19:51;7.60;99.90
26909;DHT22;14477;51.038;4.588;2024-03-08T00:22:17;7.60;99.90
26909;DHT22;14477;51.038;4.588;2024-03-08T00:24:43;7.60;99.90
26909;DHT22;14477;51.038;4.588;2024-03-08T00:27:09;7.50;99.90
26909;DHT22;14477;51.038;4.588;2024-03-08T00:29:35;7.50;99.90
26909;DHT22;14477;51.038;4.588;2024-03-08T00:32:01;7.50;99.90
26909;DHT22;14477;51.038;4.588;2024-03-08T00:34:27;7.50;99.90
26909;DHT22;14477;51.038;4.588;2024-03-08T00:36:53;7.50;99.90
26909;DHT22;14477;51.038;4.588;2024-03-08T00:39:19;7.50;99.90
26909;DHT22;14477;51.038;4.588;2024-03-08T00:41:48;7.40;99.90
26909;DHT22;14477;51.038;4.588;2024-03-08T00:44:14;7.40;99.90
26909;DHT22;14477;51.038;4.588;2024-03-08T00:46:39;7.40;99.90
26909;DHT22;14477;51.038;4.588;2024-03-08T00:49:05;7.30;99.90
26909;DHT22;14477;51.038;4.588;2024-03-08T00:51:32;7.30;99.90
26909;DHT22;14477;51.038;4.588;2024-03-08T00:53:58;7.30;99.90
26909;DHT22;14477;51.038;4.588;2024-03-08T00:56:23;7.30;99.90
26909;DHT22;14477;51.038;4.588;2024-03-08T00:58:50;7.30;99.90
26909;DHT22;14477;51.038;4.588;2024-03-08T01:01:18;7.30;99.90
26909;DHT22;14477;51.038;4.588;2024-03-08T01:03:44;7.20;99.90
26909;DHT22;14477;51.038;4.588;2024-03-08T01:06:10;7.20;99.90
26909;DHT22;14477;51.038;4.588;2024-03-08T01:08:37;7.20;99.90
26909;DHT22;14477;51.038;4.588;2024-03-08T01:11:06;7.10;99.90
26909;DHT22;14477;51.038;4.588;2024-03-08T01:13:32;7.20;99.90
26909;DHT22;14477;51.038;4.588;2024-03-08T01:16:01;7.10;99.90
26909;DHT22;14477;51.038;4.588;2024-03-08T01:18:27;7.10;99.90
26909;DHT22;14477;51.038;4.588;2024-03-08T01:20:53;7.10;99.90
26909;DHT22;14477;51.038;4.588;2024-03-08T01:23:18;7.00;99.90
26909;DHT22;14477;51.038;4.588;2024-03-08T01:25:44;7.00;99.90
26909;DHT22;14477;51.038;4.588;2024-03-08T01:28:10;7.00;99.90
26909;DHT22;14477;51.038;4.588;2024-03-08T01:30:36;6.90;99.90
26909;DHT22;14477;51.038;4.588;2024-03-08T01:33:03;6.90;99.90
26909;DHT22;14477;51.038;4.588;2024-03-08T01:35:29;6.90;99.90
26909;DHT22;14477;51.038;4.588;2024-03-08T01:37:55;6.90;99.90
26909;DHT22;14477;51.038;4.588;2024-03-08T01:40:21;6.90;99.90
26909;DHT22;14477;51.038;4.588;2024-03-08T01:42:48;6.80;99.90
26909;DHT22;14477;51.038;4.588;2024-03-08T01:45:13;6.80;99.90
26909;DHT22;14477;51.038;4.588;2024-03-08T01:47:39;6.70;99.90
26909;DHT22;14477;51.038;4.588;2024-03-08T01:50:06;6.80;99.90
26909;DHT22;14477;51.038;4.588;2024-03-08T01:52:34;6.70;99.90
26909;DHT22;14477;51.038;4.588;2024-03-08T01:55:02;6.70;99.90
26909;DHT22;14477;51.038;4.588;2024-03-08T01:57:31;5.80;99.90
26909;DHT22;14477;51.038;4.588;2024-03-08T01:59:59;6.70;99.90
26909;DHT22;14477;51.038;4.588;2024-03-08T02:02:32;6.60;99.90
26909;DHT22;14477;51.038;4.588;2024-03-08T02:04:57;6.60;99.90
26909;DHT22;14477;51.038;4.588;2024-03-08T02:07:23;6.60;99.90
26909;DHT22;14477;51.038;4.588;2024-03-08T02:09:49;6.60;99.90
26909;DHT22;14477;51.038;4.588;2024-03-08T02:12:16;6.50;99.90
26909;DHT22;14477;51.038;4.588;2024-03-08T02:14:42;6.50;99.90
26909;DHT22;14477;51.038;4.588;2024-03-08T02:17:09;6.50;99.90
26909;DHT22;14477;51.038;4.588;2024-03-08T02:19:35;6.50;99.90
26909;DHT22;14477;51.038;4.588;2024-03-08T02:22:02;6.50;99.90
26909;DHT22;14477;51.038;4.588;2024-03-08T02:24:30;6.40;99.90
26909;DHT22;14477;51.038;4.588;2024-03-08T02:26:56;6.40;99.90
26909;DHT22;14477;51.038;4.588;2024-03-08T02:29:22;6.40;99.90
26909;DHT22;14477;51.038;4.588;2024-03-08T02:31:51;6.40;99.90
26909;DHT22;14477;51.038;4.588;2024-03-08T02:34:17;6.40;99.90
26909;DHT22;14477;51.038;4.588;2024-03-08T02:36:43;6.30;99.90
26909;DHT22;14477;51.038;4.588;2024-03-08T02:39:08;6.30;99.90
26909;DHT22;14477;51.038;4.588;2024-03-08T02:41:36;5.50;99.90
26909;DHT22;14477;51.038;4.588;2024-03-08T02:44:02;6.30;99.90
26909;DHT22;14477;51.038;4.588;2024-03-08T02:46:28;6.30;99.90
26909;DHT22;14477;51.038;4.588;2024-03-08T02:48:55;6.20;99.90
26909;DHT22;14477;51.038;4.588;2024-03-08T02:51:21;6.20;99.90
26909;DHT22;14477;51.038;4.588;2024-03-08T02:53:47;6.20;99.90
26909;DHT22;14477;51.038;4.588;2024-03-08T02:56:15;6.20;99.90
26909;DHT22;14477;51.038;4.588;2024-03-08T02:58:42;6.20;99.90
26909;DHT22;14477;51.038;4.588;2024-03-08T03:01:08;6.10;99.90
26909;DHT22;14477;51.038;4.588;2024-03-08T03:03:35;6.20;99.90
26909;DHT22;14477;51.038;4.588;2024-03-08T03:06:01;6.10;99.90
26909;DHT22;14477;51.038;4.588;2024-03-08T03:08:27;6.10;99.90
26909;DHT22;14477;51.038;4.588;2024-03-08T03:10:53;6.10;99.90
26909;DHT22;14477;51.038;4.588;2024-03-08T03:13:22;6.00;99.90
26909;DHT22;14477;51.038;4.588;2024-03-08T03:15:48;6.00;99.90
26909;DHT22;14477;51.038;4.588;2024-03-08T03:18:14;6.00;99.90
26909;DHT22;14477;51.038;4.588;2024-03-08T03:20:41;6.00;99.90
26909;DHT22;14477;51.038;4.588;2024-03-08T03:23:09;5.90;99.90
26909;DHT22;14477;51.038;4.588;2024-03-08T03:25:35;5.90;99.90
26909;DHT22;14477;51.038;4.588;2024-03-08T03:28:01;5.90;99.90
26909;DHT22;14477;51.038;4.588;2024-03-08T03:30:28;5.90;99.90
26909;DHT22;14477;51.038;4.588;2024-03-08T03:32:59;5.70;99.90
26909;DHT22;14477;51.038;4.588;2024-03-08T03:35:27;5.80;99.90
26909;DHT22;14477;51.038;4.588;2024-03-08T03:37:52;5.80;99.90
26909;DHT22;14477;51.038;4.588;2024-03-08T03:40:31;5.80;99.90
26909;DHT22;14477;51.038;4.588;2024-03-08T03:42:57;5.80;99.90
26909;DHT22;14477;51.038;4.588;2024-03-08T03:45:24;5.80;99.90
26909;DHT22;14477;51.038;4.588;2024-03-08T03:47:50;5.80;99.90
26909;DHT22;14477;51.038;4.588;2024-03-08T03:50:16;5.80;99.90
26909;DHT22;14477;51.038;4.588;2024-03-08T03:52:41;4.50;99.90
26909;DHT22;14477;51.038;4.588;2024-03-08T03:55:08;5.70;99.90
26909;DHT22;14477;51.038;4.588;2024-03-08T03:57:34;5.70;99.90
26909;DHT22;14477;51.038;4.588;2024-03-08T03:59:59;5.70;99.90
26909;DHT22;14477;51.038;4.588;2024-03-08T04:02:25;5.70;99.90
26909;DHT22;14477;51.038;4.588;2024-03-08T04:04:52;5.60;99.90
26909;DHT22;14477;51.038;4.588;2024-03-08T04:07:20;5.60;99.90
26909;DHT22;14477;51.038;4.588;2024-03-08T04:09:46;5.60;99.90
26909;DHT22;14477;51.038;4.588;2024-03-08T04:12:12;5.60;99.90
26909;DHT22;14477;51.038;4.588;2024-03-08T04:14:42;5.60;99.90
26909;DHT22;14477;51.038;4.588;2024-03-08T04:17:08;5.60;99.90
26909;DHT22;14477;51.038;4.588;2024-03-08T04:19:38;5.60;99.90
26909;DHT22;14477;51.038;4.588;2024-03-08T04:22:03;5.60;99.90
26909;DHT22;14477;51.038;4.588;2024-03-08T04:24:29;5.60;99.90
26909;DHT22;14477;51.038;4.588;2024-03-08T04:26:56;5.50;99.90
26909;DHT22;14477;51.038;4.588;2024-03-08T04:29:23;5.50;99.90
26909;DHT22;14477;51.038;4.588;2024-03-08T04:31:48;5.40;99.90
26909;DHT22;14477;51.038;4.588;2024-03-08T04:34:14;5.50;99.90
26909;DHT22;14477;51.038;4.588;2024-03-08T04:36:40;5.40;99.90
26909;DHT22;14477;51.038;4.588;2024-03-08T04:39:06;5.40;99.90
26909;DHT22;14477;51.038;4.588;2024-03-08T04:41:35;5.40;99.90
26909;DHT22;14477;51.038;4.588;2024-03-08T04:44:02;5.40;99.90
26909;DHT22;14477;51.038;4.588;2024-03-08T04:46:28;5.40;99.90
26909;DHT22;14477;51.038;4.588;2024-03-08T04:48:54;5.40;99.90
26909;DHT22;14477;51.038;4.588;2024-03-08T04:51:20;5.40;99.90
26909;DHT22;14477;51.038;4.588;2024-03-08T04:53:46;5.30;99.90
26909;DHT22;14477;51.038;4.588;2024-03-08T04:56:12;5.40;99.90
26909;DHT22;14477;51.038;4.588;2024-03-08T04:58:37;5.30;99.90
26909;DHT22;14477;51.038;4.588;2024-03-08T05:01:03;5.30;99.90
26909;DHT22;14477;51.038;4.588;2024-03-08T05:03:29;5.30;99.90
26909;DHT22;14477;51.038;4.588;2024-03-08T05:05:55;5.30;99.90
26909;DHT22;14477;51.038;4.588;2024-03-08T05:08:22;5.30;99.90
26909;DHT22;14477;51.038;4.588;2024-03-08T05:10:47;5.30;99.90
26909;DHT22;14477;51.038;4.588;2024-03-08T05:13:13;5.30;99.90
26909;DHT22;14477;51.038;4.588;2024-03-08T05:15:39;5.30;99.90
26909;DHT22;14477;51.038;4.588;2024-03-08T05:18:05;5.20;99.90
26909;DHT22;14477;51.038;4.588;2024-03-08T05:20:31;5.20;99.90
26909;DHT22;14477;51.038;4.588;2024-03-08T05:22:57;5.90;99.90
26909;DHT22;14477;51.038;4.588;2024-03-08T05:25:26;5.10;99.90
26909;DHT22;14477;51.038;4.588;2024-03-08T05:27:52;5.10;99.90
26909;DHT22;14477;51.038;4.588;2024-03-08T05:30:18;5.10;99.90
26909;DHT22;14477;51.038;4.588;2024-03-08T05:32:44;5.10;99.90
26909;DHT22;14477;51.038;4.588;2024-03-08T05:35:12;4.40;99.90
26909;DHT22;14477;51.038;4.588;2024-03-08T05:37:38;5.10;99.90
26909;DHT22;14477;51.038;4.588;2024-03-08T05:40:06;5.10;99.90
26909;DHT22;14477;51.038;4.588;2024-03-08T05:42:35;5.00;99.90
26909;DHT22;14477;51.038;4.588;2024-03-08T05:45:05;5.00;99.90
26909;DHT22;14477;51.038;4.588;2024-03-08T05:47:32;5.00;99.90
26909;DHT22;14477;51.038;4.588;2024-03-08T05:50:01;5.00;99.90
26909;DHT22;14477;51.038;4.588;2024-03-08T05:52:27;5.00;99.90
26909;DHT22;14477;51.038;4.588;2024-03-08T05:54:52;5.00;99.90
26909;DHT22;14477;51.038;4.588;2024-03-08T05:57:18;5.00;99.90
26909;DHT22;14477;51.038;4.588;2024-03-08T05:59:44;4.90;99.90
26909;DHT22;14477;51.038;4.588;2024-03-08T06:02:10;5.00;99.90
26909;DHT22;14477;51.038;4.588;2024-03-08T06:04:36;4.90;99.90
26909;DHT22;14477;51.038;4.588;2024-03-08T06:07:01;4.90;99.90
26909;DHT22;14477;51.038;4.588;2024-03-08T06:09:29;4.90;99.90
26909;DHT22;14477;51.038;4.588;2024-03-08T06:11:55;4.90;99.90
26909;DHT22;14477;51.038;4.588;2024-03-08T06:14:22;4.90;99.90
26909;DHT22;14477;51.038;4.588;2024-03-08T06:16:48;4.90;99.90
26909;DHT22;14477;51.038;4.588;2024-03-08T06:19:15;4.90;99.90
26909;DHT22;14477;51.038;4.588;2024-03-08T06:21:41;4.90;99.90
26909;DHT22;14477;51.038;4.588;2024-03-08T06:24:07;4.90;99.90
26909;DHT22;14477;51.038;4.588;2024-03-08T06:26:33;4.90;99.90
26909;DHT22;14477;51.038;4.588;2024-03-08T06:29:02;4.90;99.90
26909;DHT22;14477;51.038;4.588;2024-03-08T06:31:28;4.90;99.90
26909;DHT22;14477;51.038;4.588;2024-03-08T06:33:54;4.90;99.90
26909;DHT22;14477;51.038;4.588;2024-03-08T06:36:20;4.90;99.90
26909;DHT22;14477;51.038;4.588;2024-03-08T06:38:50;4.90;99.90
26909;DHT22;14477;51.038;4.588;2024-03-08T06:41:16;4.90;99.90
26909;DHT22;14477;51.038;4.588;2024-03-08T06:43:43;4.90;99.90
26909;DHT22;14477;51.038;4.588;2024-03-08T06:46:09;4.90;99.90
26909;DHT22;14477;51.038;4.588;2024-03-08T06:48:35;4.90;99.90
26909;DHT22;14477;51.038;4.588;2024-03-08T06:51:03;4.90;99.90
26909;DHT22;14477;51.038;4.588;2024-03-08T06:53:29;5.00;99.90
26909;DHT22;14477;51.038;4.588;2024-03-08T06:55:55;5.00;99.90
26909;DHT22;14477;51.038;4.588;2024-03-08T06:58:21;5.00;99.90
26909;DHT22;14477;51.038;4.588;2024-03-08T07:00:47;5.00;99.90
26909;DHT22;14477;51.038;4.588;2024-03-08T07:03:17;5.10;99.90
26909;DHT22;14477;51.038;4.588;2024-03-08T07:05:43;5.10;99.90
26909;DHT22;14477;51.038;4.588;2024-03-08T07:08:09;5.20;99.90
26909;DHT22;14477;51.038;4.588;2024-03-08T07:10:35;5.20;99.90
26909;DHT22;14477;51.038;4.588;2024-03-08T07:13:02;5.30;99.90
26909;DHT22;14477;51.038;4.588;2024-03-08T07:15:28;5.40;99.90
26909;DHT22;14477;51.038;4.588;2024-03-08T07:17:54;6.20;99.90
26909;DHT22;14477;51.038;4.588;2024-03-08T07:20:21;5.50;99.90
26909;DHT22;14477;51.038;4.588;2024-03-08T07:22:47;5.70;99.90
26909;DHT22;14477;51.038;4.588;2024-03-08T07:25:14;5.80;99.90
26909;DHT22;14477;51.038;4.588;2024-03-08T07:27:55;5.80;99.90
26909;DHT22;14477;51.038;4.588;2024-03-08T07:30:23;5.90;99.90
26909;DHT22;14477;51.038;4.588;2024-03-08T07:33:08;6.00;99.90
26909;DHT22;14477;51.038;4.588;2024-03-08T07:35:37;6.20;99.90
26909;DHT22;14477;51.038;4.588;2024-03-08T07:38:07;6.30;99.90
26909;DHT22;14477;51.038;4.588;2024-03-08T07:40:37;6.40;99.90
26909;DHT22;14477;51.038;4.588;2024-03-08T07:43:09;6.70;99.90
26909;DHT22;14477;51.038;4.588;2024-03-08T07:45:36;7.00;99.90
26909;DHT22;14477;51.038;4.588;2024-03-08T07:48:03;7.30;99.90
26909;DHT22;14477;51.038;4.588;2024-03-08T07:50:29;7.60;99.90
26909;DHT22;14477;51.038;4.588;2024-03-08T07:52:54;8.00;99.90
26909;DHT22;14477;51.038;4.588;2024-03-08T07:55:20;8.30;99.90
26909;DHT22;14477;51.038;4.588;2024-03-08T07:57:49;8.70;99.90
26909;DHT22;14477;51.038;4.588;2024-03-08T08:00:15;9.10;99.90
26909;DHT22;14477;51.038;4.588;2024-03-08T08:02:46;9.40;99.90
26909;DHT22;14477;51.038;4.588;2024-03-08T08:05:14;9.80;99.90
26909;DHT22;14477;51.038;4.588;2024-03-08T08:07:40;10.20;99.90
26909;DHT22;14477;51.038;4.588;2024-03-08T08:10:09;10.50;99.90
26909;DHT22;14477;51.038;4.588;2024-03-08T08:12:40;10.80;99.90
26909;DHT22;14477;51.038;4.588;2024-03-08T08:15:07;11.20;99.90
26909;DHT22;14477;51.038;4.588;2024-03-08T08:17:33;11.40;99.90
26909;DHT22;14477;51.038;4.588;2024-03-08T08:20:00;11.80;99.90
26909;DHT22;14477;51.038;4.588;2024-03-08T08:22:26;12.00;99.90
26909;DHT22;14477;51.038;4.588;2024-03-08T08:24:52;12.20;99.90
26909;DHT22;14477;51.038;4.588;2024-03-08T08:27:18;12.50;99.90
26909;DHT22;14477;51.038;4.588;2024-03-08T08:29:44;12.70;99.90
26909;DHT22;14477;51.038;4.588;2024-03-08T08:32:11;13.00;99.90
26909;DHT22;14477;51.038;4.588;2024-03-08T08:34:37;13.20;99.90
26909;DHT22;14477;51.038;4.588;2024-03-08T08:37:03;13.40;99.90
26909;DHT22;14477;51.038;4.588;2024-03-08T08:39:28;13.60;99.90
26909;DHT22;14477;51.038;4.588;2024-03-08T08:41:54;13.70;99.90
26909;DHT22;14477;51.038;4.588;2024-03-08T08:44:20;13.80;99.90
26909;DHT22;14477;51.038;4.588;2024-03-08T08:46:46;13.80;99.90
26909;DHT22;14477;51.038;4.588;2024-03-08T08:49:11;13.90;99.90
26909;DHT22;14477;51.038;4.588;2024-03-08T08:51:40;13.90;99.90
26909;DHT22;14477;51.038;4.588;2024-03-08T08:54:05;13.80;99.90
26909;DHT22;14477;51.038;4.588;2024-03-08T08:56:35;13.70;99.90
26909;DHT22;14477;51.038;4.588;2024-03-08T08:59:01;13.70;99.90
26909;DHT22;14477;51.038;4.588;2024-03-08T09:01:26;13.70;99.90
26909;DHT22;14477;51.038;4.588;2024-03-08T09:03:52;13.80;99.90
26909;DHT22;14477;51.038;4.588;2024-03-08T09:06:19;13.80;99.90
26909;DHT22;14477;51.038;4.588;2024-03-08T09:08:45;13.90;99.90
26909;DHT22;14477;51.038;4.588;2024-03-08T09:11:11;14.00;99.90
26909;DHT22;14477;51.038;4.588;2024-03-08T09:13:37;14.20;99.90
26909;DHT22;14477;51.038;4.588;2024-03-08T09:16:03;14.50;99.90
26909;DHT22;14477;51.038;4.588;2024-03-08T09:18:31;14.70;99.90
26909;DHT22;14477;51.038;4.588;2024-03-08T09:20:58;15.00;99.90
26909;DHT22;14477;51.038;4.588;2024-03-08T09:23:23;15.30;99.90
26909;DHT22;14477;51.038;4.588;2024-03-08T09:25:51;15.60;99.90
26909;DHT22;14477;51.038;4.588;2024-03-08T09:28:17;15.90;99.90
26909;DHT22;14477;51.038;4.588;2024-03-08T09:30:42;16.10;99.90
26909;DHT22;14477;51.038;4.588;2024-03-08T09:33:10;16.40;99.90
26909;DHT22;14477;51.038;4.588;2024-03-08T09:35:37;16.60;99.90
26909;DHT22;14477;51.038;4.588;2024-03-08T09:38:02;16.80;99.90
26909;DHT22;14477;51.038;4.588;2024-03-08T09:40:30;16.90;99.90
26909;DHT22;14477;51.038;4.588;2024-03-08T09:42:56;17.10;99.90
26909;DHT22;14477;51.038;4.588;2024-03-08T09:45:23;17.20;99.90
26909;DHT22;14477;51.038;4.588;2024-03-08T09:47:50;17.30;99.90
26909;DHT22;14477;51.038;4.588;2024-03-08T09:50:17;17.50;99.90
26909;DHT22;14477;51.038;4.588;2024-03-08T09:52:46;17.60;99.90
26909;DHT22;14477;51.038;4.588;2024-03-08T09:55:12;17.80;99.90
26909;DHT22;14477;51.038;4.588;2024-03-08T09:57:39;18.00;99.90
26909;DHT22;14477;51.038;4.588;2024-03-08T10:00:06;18.10;99.90
26909;DHT22;14477;51.038;4.588;2024-03-08T10:02:50;18.30;99.90
26909;DHT22;14477;51.038;4.588;2024-03-08T10:05:18;18.40;99.90
26909;DHT22;14477;51.038;4.588;2024-03-08T10:07:44;18.60;99.90
26909;DHT22;14477;51.038;4.588;2024-03-08T10:10:10;18.70;99.90
26909;DHT22;14477;51.038;4.588;2024-03-08T10:12:38;18.90;99.90
26909;DHT22;14477;51.038;4.588;2024-03-08T10:15:08;19.00;99.90
26909;DHT22;14477;51.038;4.588;2024-03-08T10:17:37;19.20;99.90
26909;DHT22;14477;51.038;4.588;2024-03-08T10:20:14;19.40;99.90
26909;DHT22;14477;51.038;4.588;2024-03-08T10:22:41;19.60;99.90
26909;DHT22;14477;51.038;4.588;2024-03-08T10:25:11;19.80;99.90
26909;DHT22;14477;51.038;4.588;2024-03-08T10:27:38;20.00;99.90
26909;DHT22;14477;51.038;4.588;2024-03-08T10:30:15;20.20;99.90
26909;DHT22;14477;51.038;4.588;2024-03-08T10:32:45;20.40;99.90
26909;DHT22;14477;51.038;4.588;2024-03-08T10:35:12;20.60;99.90
26909;DHT22;14477;51.038;4.588;2024-03-08T10:37:48;20.80;99.90
26909;DHT22;14477;51.038;4.588;2024-03-08T10:40:19;20.90;99.90
26909;DHT22;14477;51.038;4.588;2024-03-08T10:42:55;21.00;99.90
26909;DHT22;14477;51.038;4.588;2024-03-08T10:45:36;21.10;99.90
26909;DHT22;14477;51.038;4.588;2024-03-08T10:50:32;21.30;99.90
26909;DHT22;14477;51.038;4.588;2024-03-08T10:53:00;21.40;99.90
26909;DHT22;14477;51.038;4.588;2024-03-08T10:55:28;21.50;99.90
26909;DHT22;14477;51.038;4.588;2024-03-08T10:57:54;21.60;99.90
26909;DHT22;14477;51.038;4.588;2024-03-08T11:00:20;21.60;99.50
26909;DHT22;14477;51.038;4.588;2024-03-08T11:02:53;21.60;99.90
26909;DHT22;14477;51.038;4.588;2024-03-08T11:05:32;21.70;99.40
26909;DHT22;14477;51.038;4.588;2024-03-08T11:08:02;21.70;98.70
26909;DHT22;14477;51.038;4.588;2024-03-08T11:10:29;21.70;99.60
26909;DHT22;14477;51.038;4.588;2024-03-08T11:12:54;21.80;99.90
26909;DHT22;14477;51.038;4.588;2024-03-08T11:15:20;21.80;99.60
26909;DHT22;14477;51.038;4.588;2024-03-08T11:17:49;21.90;99.90
26909;DHT22;14477;51.038;4.588;2024-03-08T11:20:17;22.10;99.30
26909;DHT22;14477;51.038;4.588;2024-03-08T11:22:52;22.10;99.20
26909;DHT22;14477;51.038;4.588;2024-03-08T11:25:39;22.20;98.50
26909;DHT22;14477;51.038;4.588;2024-03-08T11:33:30;22.30;96.90
26909;DHT22;14477;51.038;4.588;2024-03-08T11:36:23;22.30;95.90
26909;DHT22;14477;51.038;4.588;2024-03-08T11:38:53;22.30;97.20
26909;DHT22;14477;51.038;4.588;2024-03-08T11:41:22;22.40;98.40
26909;DHT22;14477;51.038;4.588;2024-03-08T11:43:50;22.50;97.90
26909;DHT22;14477;51.038;4.588;2024-03-08T11:46:17;22.60;97.60
26909;DHT22;14477;51.038;4.588;2024-03-08T11:48:44;22.60;97.00
26909;DHT22;14477;51.038;4.588;2024-03-08T11:51:12;22.60;97.90
26909;DHT22;14477;51.038;4.588;2024-03-08T11:53:39;22.70;96.00
26909;DHT22;14477;51.038;4.588;2024-03-08T11:56:10;22.80;95.50
26909;DHT22;14477;51.038;4.588;2024-03-08T11:58:40;22.70;94.80
26909;DHT22;14477;51.038;4.588;2024-03-08T12:01:07;22.70;96.10
26909;DHT22;14477;51.038;4.588;2024-03-08T12:03:42;22.70;96.40
26909;DHT22;14477;51.038;4.588;2024-03-08T12:06:10;22.80;96.30
26909;DHT22;14477;51.038;4.588;2024-03-08T12:08:36;22.90;96.80
26909;DHT22;14477;51.038;4.588;2024-03-08T12:11:04;23.00;96.40
26909;DHT22;14477;51.038;4.588;2024-03-08T12:13:32;23.00;95.30
26909;DHT22;14477;51.038;4.588;2024-03-08T12:16:00;23.10;96.60
26909;DHT22;14477;51.038;4.588;2024-03-08T12:18:33;23.30;95.50
26909;DHT22;14477;51.038;4.588;2024-03-08T12:21:07;23.30;93.90
26909;DHT22;14477;51.038;4.588;2024-03-08T12:23:37;23.30;93.00
26909;DHT22;14477;51.038;4.588;2024-03-08T12:28:42;23.20;91.00
26909;DHT22;14477;51.038;4.588;2024-03-08T12:31:12;23.20;93.90
26909;DHT22;14477;51.038;4.588;2024-03-08T12:34:00;23.20;93.20
26909;DHT22;14477;51.038;4.588;2024-03-08T12:36:26;23.20;93.10
26909;DHT22;14477;51.038;4.588;2024-03-08T12:38:53;23.20;93.50
26909;DHT22;14477;51.038;4.588;2024-03-08T12:41:20;23.20;92.60
26909;DHT22;14477;51.038;4.588;2024-03-08T12:43:47;23.20;93.60
26909;DHT22;14477;51.038;4.588;2024-03-08T12:46:19;23.20;93.30
26909;DHT22;14477;51.038;4.588;2024-03-08T12:48:46;23.30;93.30
26909;DHT22;14477;51.038;4.588;2024-03-08T12:51:16;23.30;93.70
26909;DHT22;14477;51.038;4.588;2024-03-08T12:53:43;23.30;91.90
26909;DHT22;14477;51.038;4.588;2024-03-08T12:56:10;23.30;93.00
26909;DHT22;14477;51.038;4.588;2024-03-08T12:58:36;23.30;93.10
26909;DHT22;14477;51.038;4.588;2024-03-08T13:01:05;23.40;93.30
26909;DHT22;14477;51.038;4.588;2024-03-08T13:03:34;23.40;92.90
26909;DHT22;14477;51.038;4.588;2024-03-08T13:06:06;23.50;93.60
26909;DHT22;14477;51.038;4.588;2024-03-08T13:08:38;23.60;91.40
26909;DHT22;14477;51.038;4.588;2024-03-08T13:11:07;23.70;92.00
26909;DHT22;14477;51.038;4.588;2024-03-08T13:13:34;23.70;92.60
26909;DHT22;14477;51.038;4.588;2024-03-08T13:16:06;23.70;91.80
26909;DHT22;14477;51.038;4.588;2024-03-08T13:18:37;23.60;90.00
26909;DHT22;14477;51.038;4.588;2024-03-08T13:21:05;23.50;90.90
26909;DHT22;14477;51.038;4.588;2024-03-08T13:23:31;23.40;91.00
26909;DHT22;14477;51.038;4.588;2024-03-08T13:25:57;23.30;91.00
26909;DHT22;14477;51.038;4.588;2024-03-08T13:28:23;23.20;90.40
26909;DHT22;14477;51.038;4.588;2024-03-08T13:30:55;23.10;90.60
26909;DHT22;14477;51.038;4.588;2024-03-08T13:33:23;23.10;91.10
26909;DHT22;14477;51.038;4.588;2024-03-08T13:35:49;23.10;90.80
26909;DHT22;14477;51.038;4.588;2024-03-08T13:38:16;23.00;89.70
26909;DHT22;14477;51.038;4.588;2024-03-08T13:40:46;23.00;88.70
26909;DHT22;14477;51.038;4.588;2024-03-08T13:43:12;22.90;88.90
26909;DHT22;14477;51.038;4.588;2024-03-08T13:45:38;22.80;88.20
26909;DHT22;14477;51.038;4.588;2024-03-08T13:48:05;22.80;89.90
26909;DHT22;14477;51.038;4.588;2024-03-08T13:50:31;22.70;88.90
26909;DHT22;14477;51.038;4.588;2024-03-08T13:52:56;22.70;88.30
26909;DHT22;14477;51.038;4.588;2024-03-08T13:55:23;22.60;89.80
26909;DHT22;14477;51.038;4.588;2024-03-08T13:57:52;22.50;89.70
26909;DHT22;14477;51.038;4.588;2024-03-08T14:00:18;22.50;86.70
26909;DHT22;14477;51.038;4.588;2024-03-08T14:02:48;22.40;87.30
26909;DHT22;14477;51.038;4.588;2024-03-08T14:05:14;22.30;87.90
26909;DHT22;14477;51.038;4.588;2024-03-08T14:07:41;22.30;86.60
26909;DHT22;14477;51.038;4.588;2024-03-08T14:10:07;22.20;87.40
26909;DHT22;14477;51.038;4.588;2024-03-08T14:12:35;22.10;87.60
26909;DHT22;14477;51.038;4.588;2024-03-08T14:15:02;21.90;84.60
26909;DHT22;14477;51.038;4.588;2024-03-08T14:17:31;21.80;84.10
26909;DHT22;14477;51.038;4.588;2024-03-08T14:19:57;21.60;85.20
26909;DHT22;14477;51.038;4.588;2024-03-08T14:22:24;21.50;85.90
26909;DHT22;14477;51.038;4.588;2024-03-08T14:24:50;21.50;86.50
26909;DHT22;14477;51.038;4.588;2024-03-08T14:27:17;21.40;85.90
26909;DHT22;14477;51.038;4.588;2024-03-08T14:29:44;21.40;85.30
26909;DHT22;14477;51.038;4.588;2024-03-08T14:32:10;21.40;85.50
26909;DHT22;14477;51.038;4.588;2024-03-08T14:34:38;21.30;85.20
26909;DHT22;14477;51.038;4.588;2024-03-08T14:37:04;21.20;85.90
26909;DHT22;14477;51.038;4.588;2024-03-08T14:39:33;21.20;85.00
26909;DHT22;14477;51.038;4.588;2024-03-08T14:42:00;21.10;84.80
26909;DHT22;14477;51.038;4.588;2024-03-08T14:44:27;21.00;84.00
26909;DHT22;14477;51.038;4.588;2024-03-08T14:46:58;20.80;82.30
26909;DHT22;14477;51.038;4.588;2024-03-08T14:49:24;20.70;81.40
26909;DHT22;14477;51.038;4.588;2024-03-08T14:51:55;20.50;83.10
26909;DHT22;14477;51.038;4.588;2024-03-08T14:54:23;20.40;83.00
26909;DHT22;14477;51.038;4.588;2024-03-08T14:56:49;20.20;82.80
26909;DHT22;14477;51.038;4.588;2024-03-08T14:59:18;20.10;82.10
26909;DHT22;14477;51.038;4.588;2024-03-08T15:01:46;20.00;83.00
26909;DHT22;14477;51.038;4.588;2024-03-08T15:04:11;19.90;83.10
26909;DHT22;14477;51.038;4.588;2024-03-08T15:06:38;19.90;83.40
26909;DHT22;14477;51.038;4.588;2024-03-08T15:09:04;19.60;83.00
26909;DHT22;14477;51.038;4.588;2024-03-08T15:11:46;19.70;83.30
26909;DHT22;14477;51.038;4.588;2024-03-08T15:14:14;19.60;82.10
26909;DHT22;14477;51.038;4.588;2024-03-08T15:16:42;19.40;82.30
26909;DHT22;14477;51.038;4.588;2024-03-08T15:19:08;19.40;83.30
26909;DHT22;14477;51.038;4.588;2024-03-08T15:21:35;19.30;83.10
26909;DHT22;14477;51.038;4.588;2024-03-08T15:24:02;19.20;83.10
26909;DHT22;14477;51.038;4.588;2024-03-08T15:26:31;19.20;83.60
26909;DHT22;14477;51.038;4.588;2024-03-08T15:28:57;19.10;83.40
26909;DHT22;14477;51.038;4.588;2024-03-08T15:31:23;19.10;84.30
26909;DHT22;14477;51.038;4.588;2024-03-08T15:33:53;19.00;84.30
26909;DHT22;14477;51.038;4.588;2024-03-08T15:36:29;19.00;84.50
26909;DHT22;14477;51.038;4.588;2024-03-08T15:39:00;18.90;83.00
26909;DHT22;14477;51.038;4.588;2024-03-08T15:41:26;18.80;82.80
26909;DHT22;14477;51.038;4.588;2024-03-08T15:43:55;18.70;83.10
26909;DHT22;14477;51.038;4.588;2024-03-08T15:46:22;18.70;82.80
26909;DHT22;14477;51.038;4.588;2024-03-08T15:48:50;18.60;81.90
26909;DHT22;14477;51.038;4.588;2024-03-08T15:51:17;18.50;82.60